createdAt,value
2018-03-06T00:01:46.272Z,18.17
2018-03-06T00:04:13.271Z,27.00
2018-03-06T00:06:40.605Z,22.53
2018-03-06T00:09:06.870Z,20.47
2018-03-06T00:11:33.130Z,18.53
2018-03-06T00:13:59.414Z,19.40
2018-03-06T00:16:25.767Z,19.40
2018-03-06T00:18:52.058Z,19.90
2018-03-06T00:21:18.306Z,18.03
2018-03-06T00:23:44.652Z,17.93
2018-03-06T00:26:10.914Z,20.60
2018-03-06T00:28:37.981Z,20.33
2018-03-06T00:31:04.278Z,18.40
2018-03-06T00:33:30.529Z,19.50
2018-03-06T00:35:57.553Z,19.77
2018-03-06T00:38:23.889Z,21.10
2018-03-06T00:40:50.831Z,21.30
2018-03-06T00:43:17.168Z,23.33
2018-03-06T00:45:43.397Z,22.23
2018-03-06T00:48:09.703Z,23.80
2018-03-06T00:50:35.985Z,20.07
2018-03-06T00:53:03.058Z,22.97
2018-03-06T00:55:30.346Z,22.70
2018-03-06T00:57:57.562Z,22.37
2018-03-06T01:00:23.816Z,23.17
2018-03-06T01:02:51.744Z,25.23
2018-03-06T01:05:18.752Z,24.43
2018-03-06T01:07:45.046Z,24.53
2018-03-06T01:10:11.297Z,23.37
2018-03-06T01:12:37.554Z,25.13
2018-03-06T01:15:04.215Z,25.60
2018-03-06T01:17:31.044Z,26.83
2018-03-06T01:19:58.093Z,29.00
2018-03-06T01:22:24.363Z,25.97
2018-03-06T01:24:54.156Z,27.63
2018-03-06T01:27:21.223Z,28.53
2018-03-06T01:29:49.024Z,28.83
2018-03-06T01:32:15.317Z,28.87
2018-03-06T01:34:42.318Z,29.73
2018-03-06T01:37:08.573Z,30.13
2018-03-06T01:42:07.302Z,32.03
2018-03-06T01:44:33.583Z,32.03
2018-03-06T01:46:59.854Z,30.53
2018-03-06T01:49:28.673Z,30.43
2018-03-06T01:52:05.119Z,32.23
2018-03-06T01:54:33.861Z,32.23
2018-03-06T01:57:04.864Z,30.40
2018-03-06T01:59:33.968Z,30.53
2018-03-06T02:02:00.979Z,30.53
2018-03-06T02:04:31.490Z,30.87
2018-03-06T02:07:02.677Z,30.57
2018-03-06T02:09:28.977Z,31.10
2018-03-06T02:11:56.120Z,31.40
2018-03-06T02:16:53.944Z,29.50
2018-03-06T02:19:20.963Z,30.33
2018-03-06T02:21:49.770Z,31.60
2018-03-06T02:24:16.833Z,31.60
2018-03-06T02:26:43.099Z,31.03
2018-03-06T02:29:10.134Z,31.90
2018-03-06T02:31:37.960Z,33.20
2018-03-06T02:34:04.290Z,32.73
2018-03-06T02:36:31.301Z,32.40
2018-03-06T02:38:57.584Z,34.07
2018-03-06T02:41:24.106Z,33.77
2018-03-06T02:43:50.457Z,39.37
2018-03-06T02:46:16.747Z,49.13
2018-03-06T02:48:43.002Z,49.50
2018-03-06T02:51:15.270Z,44.20
2018-03-06T02:53:44.337Z,38.23
2018-03-06T02:56:10.598Z,36.30
2018-03-06T02:58:40.090Z,36.97
2018-03-06T03:01:06.356Z,37.73
2018-03-06T03:03:34.299Z,37.00
2018-03-06T03:06:01.970Z,36.67
2018-03-06T03:08:29.699Z,35.37
2018-03-06T03:10:56.738Z,35.23
2018-03-06T03:15:57.231Z,35.87
2018-03-06T03:18:23.867Z,36.87
2018-03-06T03:20:50.895Z,33.87
2018-03-06T03:23:17.177Z,38.73
2018-03-06T03:25:43.450Z,35.53
2018-03-06T03:28:09.739Z,37.67
2018-03-06T03:30:36.002Z,34.70
2018-03-06T03:33:03.014Z,36.33
2018-03-06T03:35:30.026Z,39.17
2018-03-06T03:37:56.286Z,38.13
2018-03-06T03:40:22.578Z,40.10
2018-03-06T03:42:49.575Z,41.87
2018-03-06T03:45:15.861Z,40.53
2018-03-06T03:47:42.878Z,39.13
2018-03-06T03:50:09.179Z,41.30
2018-03-06T03:52:36.189Z,41.60
2018-03-06T03:55:02.477Z,42.80
2018-03-06T03:57:28.762Z,39.27
2018-03-06T03:59:55.029Z,41.63
2018-03-06T04:02:21.295Z,41.90
2018-03-06T04:04:53.712Z,42.40
2018-03-06T04:07:20.503Z,42.07
2018-03-06T04:09:47.180Z,42.30
2018-03-06T04:12:13.463Z,44.13
2018-03-06T04:14:41.010Z,44.03
2018-03-06T04:17:08.122Z,40.93
2018-03-06T04:19:34.394Z,41.83
2018-03-06T04:22:01.419Z,43.93
2018-03-06T04:24:28.422Z,44.17
2018-03-06T04:26:54.693Z,43.77
2018-03-06T04:29:20.974Z,45.13
2018-03-06T04:31:47.961Z,46.50
2018-03-06T04:34:14.250Z,45.37
2018-03-06T04:36:40.504Z,46.57
2018-03-06T04:39:06.813Z,48.00
2018-03-06T04:41:33.060Z,45.43
2018-03-06T04:46:43.256Z,45.83
2018-03-06T04:49:09.508Z,46.40
2018-03-06T04:51:35.821Z,46.87
2018-03-06T04:54:02.116Z,45.50
2018-03-06T04:56:28.388Z,46.53
2018-03-06T04:58:54.656Z,45.83
2018-03-06T05:01:20.905Z,48.97
2018-03-06T05:03:47.973Z,46.50
2018-03-06T05:06:14.344Z,45.27
2018-03-06T05:08:40.598Z,45.57
2018-03-06T05:11:06.891Z,47.80
2018-03-06T05:13:33.117Z,47.93
2018-03-06T05:15:59.398Z,47.43
2018-03-06T05:18:25.649Z,46.13
2018-03-06T05:20:51.900Z,45.37
2018-03-06T05:23:18.176Z,48.73
2018-03-06T05:25:44.428Z,47.80
2018-03-06T05:28:10.714Z,46.20
2018-03-06T05:30:36.969Z,46.50
2018-03-06T05:33:03.245Z,44.73
2018-03-06T05:35:29.553Z,50.83
2018-03-06T05:37:55.796Z,47.17
2018-03-06T05:40:22.053Z,48.73
2018-03-06T05:42:48.352Z,47.40
2018-03-06T05:45:14.621Z,50.33
2018-03-06T05:47:40.887Z,48.03
2018-03-06T05:50:07.224Z,49.97
2018-03-06T05:52:33.469Z,47.03
2018-03-06T05:54:59.801Z,46.90
2018-03-06T05:57:26.057Z,47.80
2018-03-06T05:59:52.343Z,48.00
2018-03-06T06:02:18.642Z,47.87
2018-03-06T06:04:45.110Z,45.93
2018-03-06T06:07:11.453Z,48.77
2018-03-06T06:09:38.012Z,49.67
2018-03-06T06:12:04.338Z,55.07
2018-03-06T06:14:31.082Z,53.57
2018-03-06T06:16:58.094Z,51.80
2018-03-06T06:19:24.367Z,50.93
2018-03-06T06:21:50.709Z,53.60
2018-03-06T06:24:17.041Z,52.50
2018-03-06T06:26:43.302Z,52.47
2018-03-06T06:29:10.309Z,50.17
2018-03-06T06:31:36.679Z,51.77
2018-03-06T06:34:03.286Z,47.37
2018-03-06T06:36:30.563Z,46.03
2018-03-06T06:38:56.942Z,53.40
2018-03-06T06:41:23.186Z,51.27
2018-03-06T06:43:50.201Z,51.07
2018-03-06T06:46:16.446Z,51.07
2018-03-06T06:48:42.693Z,52.77
2018-03-06T06:51:08.957Z,52.10
2018-03-06T06:53:35.257Z,50.33
2018-03-06T06:56:01.516Z,52.77
2018-03-06T06:58:27.759Z,54.13
2018-03-06T07:00:54.733Z,50.00
2018-03-06T07:03:21.011Z,51.17
2018-03-06T07:05:48.010Z,51.80
2018-03-06T07:08:14.736Z,52.80
2018-03-06T07:10:41.753Z,51.47
2018-03-06T07:13:08.478Z,52.07
2018-03-06T07:15:34.761Z,52.57
2018-03-06T07:18:01.028Z,53.33
2018-03-06T07:20:28.291Z,53.33
2018-03-06T07:22:54.562Z,51.40
2018-03-06T07:25:20.825Z,52.43
2018-03-06T07:27:47.833Z,52.33
2018-03-06T07:30:14.074Z,51.77
2018-03-06T07:32:41.093Z,52.67
2018-03-06T07:35:07.337Z,47.37
2018-03-06T07:37:33.586Z,51.67
2018-03-06T07:39:59.848Z,53.97
2018-03-06T07:42:26.820Z,52.43
2018-03-06T07:44:53.081Z,55.83
2018-03-06T07:47:19.317Z,52.87
2018-03-06T07:49:45.569Z,52.13
2018-03-06T07:52:11.851Z,53.23
2018-03-06T07:54:38.154Z,55.83
2018-03-06T07:57:05.174Z,53.77
2018-03-06T07:59:32.162Z,52.30
2018-03-06T08:01:58.401Z,56.90
2018-03-06T08:04:24.667Z,58.40
2018-03-06T08:06:50.906Z,56.37
2018-03-06T08:09:17.178Z,57.63
2018-03-06T08:11:44.246Z,55.47
2018-03-06T08:14:11.345Z,55.97
2018-03-06T08:16:38.345Z,57.57
2018-03-06T08:19:04.586Z,54.43
2018-03-06T08:21:31.715Z,53.37
2018-03-06T08:23:58.033Z,53.63
2018-03-06T08:26:24.226Z,51.03
2018-03-06T08:28:50.497Z,56.47
2018-03-06T08:31:16.743Z,52.80
2018-03-06T08:33:43.026Z,54.10
2018-03-06T08:36:09.292Z,56.33
2018-03-06T08:38:35.541Z,55.57
2018-03-06T08:41:01.835Z,54.37
2018-03-06T08:43:28.852Z,56.93
2018-03-06T08:45:55.133Z,54.83
2018-03-06T08:48:21.373Z,56.13
2018-03-06T08:50:47.610Z,55.20
2018-03-06T08:53:14.614Z,51.73
2018-03-06T08:55:40.896Z,54.33
2018-03-06T08:58:07.168Z,54.27
2018-03-06T09:00:34.147Z,55.40
2018-03-06T09:03:00.388Z,52.60
2018-03-06T09:05:26.658Z,52.73
2018-03-06T09:07:52.898Z,51.37
2018-03-06T09:10:19.180Z,53.73
2018-03-06T09:12:45.453Z,50.73
2018-03-06T09:15:11.685Z,53.60
2018-03-06T09:17:38.687Z,56.33
2018-03-06T09:20:04.960Z,54.40
2018-03-06T09:22:31.233Z,53.30
2018-03-06T09:24:57.472Z,50.43
2018-03-06T09:27:24.462Z,51.20
2018-03-06T09:29:50.716Z,53.57
2018-03-06T09:32:17.697Z,54.27
2018-03-06T09:34:43.959Z,51.73
2018-03-06T09:37:10.994Z,53.17
2018-03-06T09:39:37.973Z,56.40
2018-03-06T09:42:04.241Z,56.20
2018-03-06T09:44:31.234Z,55.20
2018-03-06T09:46:57.490Z,52.97
2018-03-06T09:49:24.494Z,55.53
2018-03-06T09:51:50.776Z,54.70
2018-03-06T09:54:17.017Z,52.70
2018-03-06T09:56:43.310Z,55.53
2018-03-06T09:59:09.548Z,53.40
2018-03-06T10:01:35.784Z,55.70
2018-03-06T10:04:02.814Z,54.57
2018-03-06T10:06:29.814Z,55.07
2018-03-06T10:08:56.073Z,52.70
2018-03-06T10:11:23.060Z,55.63
2018-03-06T10:13:49.301Z,52.40
2018-03-06T10:16:16.316Z,53.07
2018-03-06T10:18:42.580Z,56.03
2018-03-06T10:21:08.852Z,53.97
2018-03-06T10:23:35.101Z,54.83
2018-03-06T10:26:01.366Z,53.07
2018-03-06T10:28:27.631Z,56.47
2018-03-06T10:30:53.865Z,54.40
2018-03-06T10:33:20.125Z,56.83
2018-03-06T10:35:46.373Z,56.47
2018-03-06T10:38:12.610Z,55.27
2018-03-06T10:40:38.857Z,56.17
2018-03-06T10:43:05.100Z,56.27
2018-03-06T10:45:32.122Z,55.90
2018-03-06T10:47:58.378Z,52.93
2018-03-06T10:50:24.625Z,53.00
2018-03-06T10:52:50.885Z,56.73
2018-03-06T10:55:17.879Z,51.50
2018-03-06T10:57:44.162Z,52.80
2018-03-06T11:00:10.434Z,51.63
2018-03-06T11:02:42.401Z,54.93
2018-03-06T11:05:08.670Z,51.57
2018-03-06T11:07:34.901Z,64.63
2018-03-06T11:10:01.933Z,51.40
2018-03-06T11:12:28.924Z,51.77
2018-03-06T11:14:55.148Z,49.47
2018-03-06T11:17:21.417Z,59.27
2018-03-06T11:19:47.658Z,78.93
2018-03-06T11:22:13.908Z,48.43
2018-03-06T11:24:40.204Z,50.97
2018-03-06T11:27:06.414Z,51.13
2018-03-06T11:29:32.677Z,47.93
2018-03-06T11:31:59.684Z,67.70
2018-03-06T11:34:25.975Z,48.13
2018-03-06T11:36:52.225Z,53.80
2018-03-06T11:39:18.470Z,47.07
2018-03-06T11:41:44.728Z,46.73
2018-03-06T11:44:11.104Z,51.20
2018-03-06T11:46:37.369Z,47.10
2018-03-06T11:49:03.617Z,47.70
2018-03-06T11:51:29.848Z,45.30
2018-03-06T11:53:56.121Z,48.00
2018-03-06T11:56:22.372Z,47.40
2018-03-06T11:58:48.657Z,50.95
2018-03-06T12:01:14.902Z,48.00
2018-03-06T12:03:41.148Z,50.73
2018-03-06T12:06:07.438Z,52.15
2018-03-06T12:08:33.709Z,53.42
2018-03-06T12:10:59.981Z,54.25
2018-03-06T12:13:26.228Z,56.78
2018-03-06T12:15:52.491Z,55.15
2018-03-06T12:18:18.772Z,54.10
2018-03-06T12:20:45.019Z,52.38
2018-03-06T12:23:11.342Z,52.88
2018-03-06T12:25:37.590Z,50.63
2018-03-06T12:28:03.834Z,50.15
2018-03-06T12:30:30.114Z,52.17
2018-03-06T12:32:56.377Z,53.75
2018-03-06T12:35:23.390Z,55.80
2018-03-06T12:37:49.642Z,52.67
2018-03-06T12:40:15.889Z,50.58
2018-03-06T12:42:42.176Z,54.25
2018-03-06T12:45:08.420Z,53.35
2018-03-06T12:47:34.684Z,51.85
2018-03-06T12:50:01.686Z,52.90
2018-03-06T12:52:27.928Z,54.17
2018-03-06T12:54:54.961Z,50.58
2018-03-06T12:57:21.945Z,51.70
2018-03-06T12:59:48.230Z,52.03
2018-03-06T13:02:14.489Z,49.90
2018-03-06T13:04:40.769Z,49.97
2018-03-06T13:07:07.085Z,52.25
2018-03-06T13:09:34.033Z,51.42
2018-03-06T13:12:00.310Z,49.53
2018-03-06T13:14:26.550Z,49.90
2018-03-06T13:16:52.805Z,48.20
2018-03-06T13:19:19.078Z,50.08
2018-03-06T13:21:45.312Z,49.53
2018-03-06T13:24:11.582Z,49.30
2018-03-06T13:26:37.821Z,51.80
2018-03-06T13:29:04.071Z,49.35
2018-03-06T13:31:30.336Z,48.83
2018-03-06T13:33:56.569Z,52.40
2018-03-06T13:36:22.816Z,49.92
2018-03-06T13:38:49.075Z,48.75
2018-03-06T13:41:15.362Z,49.33
2018-03-06T13:43:42.345Z,48.72
2018-03-06T13:46:08.625Z,50.33
2018-03-06T13:48:35.605Z,51.42
2018-03-06T13:51:01.902Z,49.72
2018-03-06T13:53:28.153Z,53.00
2018-03-06T13:55:54.381Z,50.92
2018-03-06T13:58:21.375Z,48.58
2018-03-06T14:00:47.667Z,50.17
2018-03-06T14:03:13.929Z,51.17
2018-03-06T14:05:40.165Z,48.83
2018-03-06T14:08:07.145Z,49.00
2018-03-06T14:10:33.410Z,44.83
2018-03-06T14:13:00.389Z,45.60
2018-03-06T14:15:26.657Z,49.67
2018-03-06T14:17:52.895Z,49.25
2018-03-06T14:20:19.138Z,49.83
2018-03-06T14:22:45.417Z,50.97
2018-03-06T14:25:11.656Z,49.70
2018-03-06T14:27:37.925Z,48.10
2018-03-06T14:30:05.078Z,47.00
2018-03-06T14:32:31.326Z,51.30
2018-03-06T14:34:57.589Z,47.03
2018-03-06T14:37:24.592Z,49.55
2018-03-06T14:39:50.844Z,46.85
2018-03-06T14:42:17.829Z,44.97
2018-03-06T14:44:44.078Z,46.85
2018-03-06T14:47:11.077Z,47.65
2018-03-06T14:49:37.325Z,45.83
2018-03-06T14:52:04.336Z,46.13
2018-03-06T14:54:30.585Z,44.73
2018-03-06T14:56:56.824Z,46.07
2018-03-06T14:59:23.097Z,50.00
2018-03-06T15:01:50.119Z,49.30
2018-03-06T15:04:16.381Z,47.60
2018-03-06T15:06:42.646Z,45.80
2018-03-06T15:09:08.878Z,44.77
2018-03-06T15:11:35.881Z,51.20
2018-03-06T15:14:02.126Z,45.50
2018-03-06T15:16:29.132Z,47.83
2018-03-06T15:18:55.389Z,48.90
2018-03-06T15:21:21.630Z,48.73
2018-03-06T15:23:47.894Z,50.40
2018-03-06T15:26:14.885Z,54.63
2018-03-06T15:28:41.150Z,53.37
2018-03-06T15:31:08.178Z,53.13
2018-03-06T15:33:34.422Z,52.53
2018-03-06T15:36:00.689Z,53.13
2018-03-06T15:38:26.954Z,48.90
2018-03-06T15:40:53.217Z,51.93
2018-03-06T15:43:19.453Z,53.13
2018-03-06T15:45:46.435Z,53.63
2018-03-06T15:48:12.700Z,50.53
2018-03-06T15:50:38.950Z,52.43
2018-03-06T15:53:05.207Z,53.67
2018-03-06T15:55:31.448Z,52.00
2018-03-06T15:57:58.424Z,53.87
2018-03-06T16:00:24.701Z,52.60
2018-03-06T16:02:50.981Z,51.33
2018-03-06T16:05:17.245Z,50.60
2018-03-06T16:07:43.502Z,50.90
2018-03-06T16:10:09.744Z,52.27
2018-03-06T16:12:36.753Z,51.30
2018-03-06T16:15:03.007Z,51.20
2018-03-06T16:17:29.273Z,46.60
2018-03-06T16:19:55.509Z,51.97
2018-03-06T16:22:21.761Z,48.97
2018-03-06T16:24:48.018Z,48.37
2018-03-06T16:27:14.257Z,46.93
2018-03-06T16:29:40.512Z,52.07
2018-03-06T16:32:06.762Z,48.33
2018-03-06T16:34:33.001Z,49.40
2018-03-06T16:36:59.282Z,50.97
2018-03-06T16:39:25.529Z,48.37
2018-03-06T16:41:51.790Z,51.00
2018-03-06T16:44:18.036Z,61.50
2018-03-06T16:46:44.296Z,65.17
2018-03-06T16:49:11.306Z,57.93
2018-03-06T16:51:37.548Z,50.70
2018-03-06T16:54:04.540Z,54.67
2018-03-06T16:56:30.774Z,53.67
2018-03-06T16:58:57.053Z,54.83
2018-03-06T17:01:23.311Z,54.43
2018-03-06T17:03:50.478Z,51.87
2018-03-06T17:06:16.736Z,57.60
2018-03-06T17:08:42.968Z,57.70
2018-03-06T17:11:09.213Z,55.03
2018-03-06T17:13:35.481Z,57.63
2018-03-06T17:16:01.876Z,59.00
2018-03-06T17:18:28.673Z,63.90
2018-03-06T17:20:54.928Z,53.30
2018-03-06T17:23:21.202Z,55.77
2018-03-06T17:25:48.073Z,61.07
2018-03-06T17:28:14.345Z,55.87
2018-03-06T17:30:40.617Z,56.43
2018-03-06T17:33:06.877Z,53.67
2018-03-06T17:35:33.125Z,56.53
2018-03-06T17:37:59.698Z,54.70
2018-03-06T17:40:26.016Z,54.13
2018-03-06T17:42:52.986Z,57.00
2018-03-06T17:45:19.257Z,64.93
2018-03-06T17:47:45.638Z,72.80
2018-03-06T17:50:12.204Z,63.07
2018-03-06T17:52:38.506Z,63.07
2018-03-06T17:55:05.492Z,58.03
2018-03-06T17:57:31.813Z,57.67
2018-03-06T17:59:58.028Z,57.67
2018-03-06T18:02:24.270Z,53.43
2018-03-06T18:04:50.633Z,55.17
2018-03-06T18:07:16.906Z,56.67
2018-03-06T18:09:43.926Z,73.47
2018-03-06T18:12:10.193Z,62.53
2018-03-06T18:14:36.440Z,55.50
2018-03-06T18:17:02.752Z,60.23
2018-03-06T18:19:29.013Z,61.37
2018-03-06T18:21:56.120Z,62.03
2018-03-06T18:24:22.532Z,59.40
2018-03-06T18:26:48.916Z,60.30
2018-03-06T18:29:15.316Z,59.37
2018-03-06T18:31:41.731Z,57.47
2018-03-06T18:34:08.032Z,59.53
2018-03-06T18:36:35.160Z,58.43
2018-03-06T18:39:02.367Z,61.43
2018-03-06T18:41:28.843Z,57.03
2018-03-06T18:43:55.320Z,63.90
2018-03-06T18:46:21.673Z,59.57
2018-03-06T18:48:47.994Z,62.70
2018-03-06T18:51:14.351Z,57.37
2018-03-06T18:53:40.795Z,59.00
2018-03-06T18:56:08.047Z,65.80
2018-03-06T18:58:35.349Z,59.80
2018-03-06T19:01:13.832Z,57.83
2018-03-06T19:03:52.332Z,62.07
2018-03-06T19:06:20.722Z,60.17
2018-03-06T19:08:47.000Z,63.53
2018-03-06T19:11:13.298Z,63.53
2018-03-06T19:13:39.664Z,61.40
2018-03-06T19:16:06.071Z,58.00
2018-03-06T19:18:32.485Z,59.17
2018-03-06T19:20:58.918Z,65.47
2018-03-06T19:23:25.391Z,63.43
2018-03-06T19:25:52.532Z,60.20
2018-03-06T19:28:18.909Z,59.40
2018-03-06T19:30:45.272Z,64.77
2018-03-06T19:33:11.813Z,60.90
2018-03-06T19:35:38.717Z,64.50
2018-03-06T19:38:05.006Z,65.60
2018-03-06T19:40:31.488Z,62.83
2018-03-06T19:42:58.061Z,64.33
2018-03-06T19:45:25.357Z,74.50
2018-03-06T19:47:51.816Z,72.90
2018-03-06T19:50:18.210Z,73.53
2018-03-06T19:52:44.605Z,68.73
2018-03-06T19:55:10.975Z,76.00
2018-03-06T19:57:37.476Z,84.87
2018-03-06T20:00:04.814Z,74.40
2018-03-06T20:02:31.992Z,70.80
2018-03-06T20:04:58.642Z,70.93
2018-03-06T20:07:26.722Z,66.27
2018-03-06T20:09:57.296Z,67.90
2018-03-06T20:12:25.721Z,71.17
2018-03-06T20:14:58.487Z,69.37
2018-03-06T20:17:25.731Z,73.60
2018-03-06T20:19:52.832Z,69.23
2018-03-06T20:22:19.567Z,64.03
2018-03-06T20:24:52.636Z,66.37
2018-03-06T20:27:20.260Z,65.33
2018-03-06T20:29:57.572Z,64.97
2018-03-06T20:32:30.474Z,69.73
2018-03-06T20:34:57.953Z,63.30
2018-03-06T20:37:24.949Z,60.93
2018-03-06T20:39:58.328Z,61.90
2018-03-06T20:42:26.521Z,64.90
2018-03-06T20:44:53.414Z,67.33
2018-03-06T20:47:22.149Z,60.03
2018-03-06T20:49:48.750Z,63.77
2018-03-06T20:52:15.426Z,68.80
2018-03-06T20:54:48.307Z,63.23
2018-03-06T20:57:14.967Z,61.07
2018-03-06T20:59:44.237Z,60.47
2018-03-06T21:02:10.958Z,65.30
2018-03-06T21:04:37.598Z,58.33
2018-03-06T21:07:04.308Z,63.23
2018-03-06T21:09:41.028Z,63.73
2018-03-06T21:12:08.284Z,58.37
2018-03-06T21:14:36.897Z,64.23
2018-03-06T21:17:04.009Z,52.20
2018-03-06T21:19:30.304Z,59.30
2018-03-06T21:21:56.963Z,66.63
2018-03-06T21:24:23.228Z,63.53
2018-03-06T21:26:49.492Z,61.00
2018-03-06T21:29:15.772Z,60.00
2018-03-06T21:31:42.056Z,56.67
2018-03-06T21:34:10.797Z,58.70
2018-03-06T21:36:38.653Z,57.13
2018-03-06T21:39:07.099Z,55.13
2018-03-06T21:41:34.400Z,53.60
2018-03-06T21:44:00.722Z,51.07
2018-03-06T21:46:27.231Z,53.00
2018-03-06T21:48:53.693Z,57.30
2018-03-06T21:51:20.004Z,50.20
2018-03-06T21:53:53.170Z,51.27
2018-03-06T21:56:19.862Z,53.70
2018-03-06T21:58:46.282Z,49.73
2018-03-06T22:01:12.788Z,53.77
2018-03-06T22:03:39.921Z,56.50
2018-03-06T22:06:06.802Z,53.67
2018-03-06T22:08:33.719Z,54.80
2018-03-06T22:11:00.078Z,54.47
2018-03-06T22:13:27.282Z,51.93
2018-03-06T22:16:13.554Z,52.90
2018-03-06T22:18:39.914Z,49.97
2018-03-06T22:21:06.195Z,46.10
2018-03-06T22:23:32.598Z,45.10
2018-03-06T22:25:58.959Z,47.43
2018-03-06T22:28:25.390Z,48.90
2018-03-06T22:30:51.693Z,46.53
2018-03-06T22:33:18.083Z,48.67
2018-03-06T22:35:45.130Z,48.73
2018-03-06T22:38:12.141Z,48.80
2018-03-06T22:40:38.615Z,44.67
2018-03-06T22:43:04.880Z,49.37
2018-03-06T22:45:31.201Z,44.47
2018-03-06T22:47:58.298Z,44.13
2018-03-06T22:50:24.557Z,43.43
2018-03-06T22:52:50.826Z,46.60
2018-03-06T22:55:17.137Z,44.30
2018-03-06T22:57:43.510Z,44.60
2018-03-06T23:00:10.541Z,45.03
2018-03-06T23:02:36.791Z,44.07
2018-03-06T23:05:03.125Z,41.53
2018-03-06T23:07:29.446Z,41.57
2018-03-06T23:09:55.736Z,40.43
2018-03-06T23:12:22.045Z,40.77
2018-03-06T23:14:48.331Z,43.10
2018-03-06T23:17:15.356Z,43.63
2018-03-06T23:19:41.643Z,37.03
2018-03-06T23:22:07.918Z,40.40
2018-03-06T23:24:34.230Z,43.93
2018-03-06T23:27:00.501Z,42.27
2018-03-06T23:29:26.855Z,42.07
2018-03-06T23:31:53.161Z,40.57
2018-03-06T23:34:20.182Z,40.63
2018-03-06T23:36:47.378Z,40.90
2018-03-06T23:39:13.694Z,43.37
2018-03-06T23:41:40.055Z,44.90
2018-03-06T23:44:07.061Z,43.83
2018-03-06T23:46:33.346Z,40.80
2018-03-06T23:48:59.628Z,39.77
2018-03-06T23:51:25.977Z,40.63
2018-03-06T23:53:52.261Z,44.97
2018-03-06T23:56:18.555Z,42.77
2018-03-06T23:58:44.842Z,41.30
